createdAt,value
2019-04-06T00:00:06.620Z,34.80
2019-04-06T00:02:40.967Z,35.65
2019-04-06T00:05:11.471Z,35.95
2019-04-06T00:07:43.993Z,35.28
2019-04-06T00:10:13.930Z,35.50
2019-04-06T00:12:43.788Z,36.08
2019-04-06T00:15:13.712Z,35.85
2019-04-06T00:17:43.595Z,37.03
2019-04-06T00:20:13.754Z,35.83
2019-04-06T00:22:43.606Z,35.73
2019-04-06T00:25:14.628Z,35.38
2019-04-06T00:27:49.067Z,35.88
2019-04-06T00:30:19.178Z,35.33
2019-04-06T00:32:56.737Z,35.28
2019-04-06T00:35:29.931Z,37.10
2019-04-06T00:37:59.732Z,36.67
2019-04-06T00:40:29.590Z,36.08
2019-04-06T00:42:59.453Z,35.55
2019-04-06T00:45:30.446Z,36.27
2019-04-06T00:48:00.396Z,35.60
2019-04-06T00:50:30.298Z,35.45
2019-04-06T00:53:00.284Z,36.65
2019-04-06T00:55:30.284Z,36.95
2019-04-06T00:58:00.287Z,37.15
2019-04-06T01:00:30.191Z,36.83
2019-04-06T01:03:00.094Z,37.03
2019-04-06T01:05:50.746Z,37.83
2019-04-06T01:08:20.662Z,37.25
2019-04-06T01:10:50.534Z,36.20
2019-04-06T01:13:20.446Z,36.98
2019-04-06T01:15:50.370Z,36.53
2019-04-06T01:18:20.261Z,36.50
2019-04-06T01:20:50.119Z,37.35
2019-04-06T01:23:22.652Z,36.28
2019-04-06T01:25:52.481Z,37.17
2019-04-06T01:28:22.424Z,37.15
2019-04-06T01:30:52.290Z,37.83
2019-04-06T01:33:22.133Z,38.35
2019-04-06T01:39:06.806Z,38.63
2019-04-06T01:41:38.247Z,38.30
2019-04-06T01:44:08.145Z,38.78
2019-04-06T01:46:43.213Z,39.27
2019-04-06T01:49:12.930Z,39.42
2019-04-06T01:51:45.840Z,40.05
2019-04-06T01:54:17.699Z,39.65
2019-04-06T01:56:59.610Z,39.98
2019-04-06T01:59:29.473Z,40.45
2019-04-06T02:02:01.089Z,40.43
2019-04-06T02:04:30.989Z,40.45
2019-04-06T02:07:00.801Z,39.67
2019-04-06T02:09:30.713Z,41.37
2019-04-06T02:12:00.624Z,40.00
2019-04-06T02:14:30.533Z,40.83
2019-04-06T02:17:00.384Z,40.83
2019-04-06T02:19:30.226Z,41.55
2019-04-06T02:22:00.191Z,41.03
2019-04-06T02:24:29.949Z,40.98
2019-04-06T02:30:37.020Z,39.85
2019-04-06T02:33:23.607Z,43.38
2019-04-06T02:35:54.954Z,42.73
2019-04-06T02:38:32.219Z,42.65
2019-04-06T02:41:12.838Z,42.20
2019-04-06T02:43:42.812Z,42.35
2019-04-06T02:46:14.628Z,42.23
2019-04-06T02:48:45.481Z,42.10
2019-04-06T02:51:15.386Z,42.60
2019-04-06T02:53:46.676Z,44.40
2019-04-06T02:56:45.477Z,43.60
2019-04-06T02:59:08.724Z,41.77
2019-04-06T03:01:38.504Z,44.08
2019-04-06T03:04:08.376Z,43.37
2019-04-06T03:06:56.648Z,42.67
2019-04-06T03:09:30.252Z,42.55
2019-04-06T03:12:00.125Z,43.58
2019-04-06T03:14:29.969Z,43.20
2019-04-06T03:17:07.034Z,42.70
2019-04-06T03:19:37.199Z,43.65
2019-04-06T03:22:07.212Z,41.88
2019-04-06T03:24:37.008Z,42.85
2019-04-06T03:27:08.825Z,43.70
2019-04-06T03:29:38.813Z,44.23
2019-04-06T03:32:09.662Z,44.38
2019-04-06T03:34:40.483Z,43.10
2019-04-06T03:37:47.327Z,42.70
2019-04-06T03:40:17.101Z,43.60
2019-04-06T03:42:48.010Z,42.53
2019-04-06T03:45:18.814Z,43.95
2019-04-06T03:47:48.585Z,42.67
2019-04-06T03:50:19.881Z,44.35
2019-04-06T03:52:49.688Z,43.60
2019-04-06T03:55:19.579Z,44.18
2019-04-06T03:57:49.347Z,44.05
2019-04-06T04:00:19.206Z,42.70
2019-04-06T04:02:49.003Z,44.53
2019-04-06T04:05:18.846Z,44.88
2019-04-06T04:07:48.730Z,44.30
2019-04-06T04:10:36.475Z,42.95
2019-04-06T04:13:06.593Z,43.13
2019-04-06T04:15:39.106Z,43.25
2019-04-06T04:18:09.053Z,42.73
2019-04-06T04:20:38.883Z,44.63
2019-04-06T04:23:08.736Z,41.80
2019-04-06T04:25:39.485Z,41.73
2019-04-06T04:28:09.467Z,43.63
2019-04-06T04:30:39.259Z,43.85
2019-04-06T04:33:09.597Z,44.18
2019-04-06T04:35:43.172Z,45.03
2019-04-06T04:38:12.967Z,42.58
2019-04-06T04:40:46.679Z,43.60
2019-04-06T04:43:16.569Z,43.13
2019-04-06T04:45:58.757Z,43.83
2019-04-06T04:48:28.535Z,43.83
2019-04-06T04:50:58.434Z,43.45
2019-04-06T04:53:30.206Z,43.28
2019-04-06T04:56:05.559Z,43.33
2019-04-06T04:58:35.413Z,43.28
2019-04-06T05:01:05.295Z,43.98
2019-04-06T05:03:36.149Z,42.65
2019-04-06T05:06:06.985Z,42.75
2019-04-06T05:08:36.836Z,42.78
2019-04-06T05:11:06.687Z,42.30
2019-04-06T05:13:36.633Z,42.58
2019-04-06T05:16:24.905Z,42.50
2019-04-06T05:18:54.760Z,42.27
2019-04-06T05:21:24.569Z,42.95
2019-04-06T05:23:56.570Z,42.55
2019-04-06T05:26:36.602Z,42.60
2019-04-06T05:28:57.813Z,41.35
2019-04-06T05:31:27.543Z,41.93
2019-04-06T05:33:57.338Z,41.85
2019-04-06T05:36:27.356Z,41.08
2019-04-06T05:39:00.073Z,41.88
2019-04-06T05:41:29.928Z,41.30
2019-04-06T05:43:59.779Z,41.42
2019-04-06T05:46:56.220Z,40.60
2019-04-06T05:49:24.395Z,40.45
2019-04-06T05:51:54.243Z,40.78
2019-04-06T05:54:27.626Z,40.28
2019-04-06T05:56:57.463Z,40.15
2019-04-06T05:59:27.424Z,41.33
2019-04-06T06:01:57.324Z,40.78
2019-04-06T06:04:27.137Z,39.58
2019-04-06T06:06:58.234Z,39.92
2019-04-06T06:09:37.779Z,40.08
2019-04-06T06:12:11.955Z,39.85
2019-04-06T06:14:41.937Z,39.93
2019-04-06T06:17:16.095Z,39.70
2019-04-06T06:19:45.839Z,40.23
2019-04-06T06:22:15.896Z,40.48
2019-04-06T06:24:51.522Z,38.33
2019-04-06T06:27:27.256Z,39.08
2019-04-06T06:29:59.902Z,39.42
2019-04-06T06:32:32.688Z,41.50
2019-04-06T06:35:02.422Z,41.30
2019-04-06T06:37:32.782Z,40.55
2019-04-06T06:40:02.702Z,38.58
2019-04-06T06:42:33.889Z,40.60
2019-04-06T06:45:04.400Z,41.25
2019-04-06T06:47:34.443Z,39.33
2019-04-06T06:50:06.580Z,39.25
2019-04-06T06:52:37.400Z,39.73
2019-04-06T06:55:07.350Z,40.45
2019-04-06T06:57:40.406Z,40.05
2019-04-06T07:00:10.173Z,39.42
2019-04-06T07:02:40.016Z,40.57
2019-04-06T07:05:13.213Z,40.00
2019-04-06T07:07:47.513Z,41.70
2019-04-06T07:10:25.672Z,41.50
2019-04-06T07:12:55.541Z,38.93
2019-04-06T07:15:25.282Z,41.90
2019-04-06T07:17:55.067Z,41.18
2019-04-06T07:20:26.512Z,41.23
2019-04-06T07:22:56.416Z,42.20
2019-04-06T07:25:39.643Z,40.05
2019-04-06T07:28:09.387Z,40.88
2019-04-06T07:30:39.263Z,40.77
2019-04-06T07:33:09.183Z,40.85
2019-04-06T07:35:57.146Z,40.80
2019-04-06T07:38:27.463Z,38.80
2019-04-06T07:41:00.953Z,40.20
2019-04-06T07:43:36.939Z,37.75
2019-04-06T07:46:06.776Z,38.90
2019-04-06T07:48:37.970Z,39.65
2019-04-06T07:51:07.973Z,39.98
2019-04-06T07:53:39.554Z,39.30
2019-04-06T07:56:10.605Z,39.70
2019-04-06T07:58:49.390Z,40.30
2019-04-06T08:01:16.568Z,38.88
2019-04-06T08:03:56.900Z,38.78
2019-04-06T08:06:37.067Z,39.30
2019-04-06T08:09:10.111Z,38.30
2019-04-06T08:11:41.564Z,38.08
2019-04-06T08:14:14.069Z,39.50
2019-04-06T08:16:43.988Z,37.50
2019-04-06T08:19:19.890Z,37.55
2019-04-06T08:21:55.463Z,36.60
2019-04-06T08:24:32.826Z,37.48
2019-04-06T08:27:16.973Z,36.40
2019-04-06T08:29:49.881Z,38.08
2019-04-06T08:32:19.826Z,37.13
2019-04-06T08:34:51.414Z,37.67
2019-04-06T08:37:21.313Z,37.55
2019-04-06T08:39:52.747Z,37.53
2019-04-06T08:42:22.460Z,37.08
2019-04-06T08:44:53.175Z,36.42
2019-04-06T08:47:25.927Z,35.60
2019-04-06T08:49:57.206Z,37.63
2019-04-06T08:52:26.995Z,36.73
2019-04-06T08:54:57.020Z,35.73
2019-04-06T08:57:26.916Z,35.50
2019-04-06T08:59:56.791Z,35.85
2019-04-06T09:02:28.503Z,35.08
2019-04-06T09:04:59.081Z,36.05
2019-04-06T09:07:32.206Z,34.80
2019-04-06T09:10:02.109Z,36.08
2019-04-06T09:12:31.901Z,34.80
2019-04-06T09:15:01.740Z,35.43
2019-04-06T09:18:09.266Z,35.13
2019-04-06T09:20:47.649Z,35.30
2019-04-06T09:23:15.587Z,35.00
2019-04-06T09:25:45.949Z,34.58
2019-04-06T09:28:37.601Z,35.08
2019-04-06T09:31:11.030Z,34.48
2019-04-06T09:33:41.142Z,35.20
2019-04-06T09:36:14.133Z,34.38
2019-04-06T09:38:44.038Z,33.95
2019-04-06T09:41:19.083Z,33.50
2019-04-06T09:43:49.391Z,33.20
2019-04-06T09:46:23.512Z,33.08
2019-04-06T09:49:02.532Z,33.08
2019-04-06T09:55:21.966Z,31.93
2019-04-06T09:58:09.149Z,32.40
2019-04-06T10:00:41.587Z,32.98
2019-04-06T10:03:33.193Z,32.33
2019-04-06T10:06:08.930Z,31.70
2019-04-06T10:08:49.282Z,32.25
2019-04-06T10:11:36.741Z,31.57
2019-04-06T10:14:14.191Z,30.80
2019-04-06T10:17:00.134Z,30.97
2019-04-06T10:19:34.444Z,30.30
2019-04-06T10:22:22.141Z,30.82
2019-04-06T10:25:02.504Z,30.37
2019-04-06T10:27:45.939Z,29.73
2019-04-06T10:30:23.619Z,31.27
2019-04-06T10:32:54.461Z,30.10
2019-04-06T10:35:25.992Z,30.72
2019-04-06T10:38:00.016Z,29.92
2019-04-06T10:40:46.626Z,29.85
2019-04-06T10:43:32.553Z,29.45
2019-04-06T10:46:22.867Z,29.25
2019-04-06T10:49:00.269Z,30.57
2019-04-06T10:51:40.675Z,30.17
2019-04-06T10:54:14.342Z,30.48
2019-04-06T10:56:48.314Z,30.45
2019-04-06T10:59:36.133Z,30.27
2019-04-06T11:02:13.653Z,30.68
2019-04-06T11:04:45.106Z,30.05
2019-04-06T11:07:39.185Z,30.63
2019-04-06T11:10:27.038Z,30.70
2019-04-06T11:13:14.868Z,30.80
2019-04-06T11:15:53.124Z,30.97
2019-04-06T11:18:26.248Z,30.65
2019-04-06T11:21:15.640Z,30.37
2019-04-06T11:24:06.985Z,30.65
2019-04-06T11:26:42.231Z,30.60
2019-04-06T11:29:19.268Z,30.95
2019-04-06T11:31:53.378Z,32.10
2019-04-06T11:34:26.990Z,31.45
2019-04-06T11:37:28.827Z,30.55
2019-04-06T11:40:20.885Z,31.27
2019-04-06T11:43:04.483Z,30.77
2019-04-06T11:45:52.328Z,29.80
2019-04-06T11:48:47.567Z,28.87
2019-04-06T11:51:47.662Z,28.52
2019-04-06T11:54:28.337Z,28.63
2019-04-06T11:57:08.795Z,28.92
2019-04-06T11:59:44.096Z,28.77
2019-04-06T12:02:31.741Z,28.00
2019-04-06T12:05:08.983Z,28.35
2019-04-06T12:07:57.919Z,28.45
2019-04-06T12:10:39.916Z,28.77
2019-04-06T12:13:17.361Z,28.95
2019-04-06T12:16:03.983Z,29.67
2019-04-06T12:18:41.663Z,29.25
2019-04-06T12:21:13.137Z,29.18
2019-04-06T12:23:47.353Z,27.93
2019-04-06T12:26:35.398Z,28.02
2019-04-06T12:29:06.762Z,27.30
2019-04-06T12:31:41.259Z,26.95
2019-04-06T12:34:31.468Z,27.25
2019-04-06T12:37:06.418Z,26.33
2019-04-06T12:39:52.232Z,26.57
2019-04-06T12:42:28.772Z,26.80
2019-04-06T12:45:01.333Z,27.13
2019-04-06T12:47:33.945Z,26.82
2019-04-06T12:50:09.598Z,26.68
2019-04-06T12:52:55.929Z,26.68
2019-04-06T12:55:33.742Z,26.93
2019-04-06T12:58:23.213Z,24.63
2019-04-06T13:00:57.198Z,25.43
2019-04-06T13:03:44.956Z,25.08
2019-04-06T13:06:33.034Z,25.07
2019-04-06T13:09:19.470Z,24.95
2019-04-06T13:11:50.836Z,23.43
2019-04-06T13:14:30.880Z,23.22
2019-04-06T13:17:02.323Z,24.77
2019-04-06T13:19:49.953Z,24.63
2019-04-06T13:22:34.287Z,24.15
2019-04-06T13:25:12.855Z,24.05
2019-04-06T13:27:44.412Z,23.87
2019-04-06T13:30:18.696Z,23.73
2019-04-06T13:32:52.774Z,23.60
2019-04-06T13:35:24.282Z,23.47
2019-04-06T13:38:01.526Z,23.12
2019-04-06T13:40:49.127Z,22.47
2019-04-06T13:43:20.945Z,21.62
2019-04-06T13:46:09.623Z,22.00
2019-04-06T13:48:53.500Z,22.58
2019-04-06T13:51:39.741Z,22.20
2019-04-06T13:54:29.331Z,21.57
2019-04-06T13:57:19.012Z,21.80
2019-04-06T14:00:08.759Z,21.20
2019-04-06T14:02:40.195Z,20.92
2019-04-06T14:05:23.814Z,21.10
2019-04-06T14:08:11.239Z,21.00
2019-04-06T14:10:57.679Z,21.05
2019-04-06T14:13:29.054Z,20.80
2019-04-06T14:16:18.977Z,19.62
2019-04-06T14:18:56.474Z,19.70
2019-04-06T14:21:33.689Z,19.37
2019-04-06T14:24:20.929Z,18.75
2019-04-06T14:27:05.046Z,17.95
2019-04-06T14:29:36.486Z,16.75
2019-04-06T14:32:13.757Z,17.52
2019-04-06T14:34:54.119Z,18.53
2019-04-06T14:37:31.124Z,19.03
2019-04-06T14:40:18.829Z,18.60
2019-04-06T14:43:05.081Z,18.30
2019-04-06T14:45:43.755Z,18.40
2019-04-06T14:48:34.574Z,17.52
2019-04-06T14:51:09.466Z,17.65
2019-04-06T14:54:04.854Z,18.40
2019-04-06T14:56:51.897Z,17.98
2019-04-06T14:59:28.976Z,17.65
2019-04-06T15:02:06.083Z,17.45
2019-04-06T15:04:43.515Z,17.42
2019-04-06T15:07:22.617Z,16.52
2019-04-06T15:09:56.916Z,16.62
2019-04-06T15:12:28.264Z,17.20
2019-04-06T15:15:16.042Z,17.30
2019-04-06T15:17:54.796Z,18.05
2019-04-06T15:20:26.148Z,17.27
2019-04-06T15:23:14.122Z,17.48
2019-04-06T15:25:59.095Z,16.62
2019-04-06T15:28:43.263Z,16.73
2019-04-06T15:31:23.982Z,16.60
2019-04-06T15:33:58.152Z,16.80
2019-04-06T15:37:08.837Z,16.40
2019-04-06T15:39:55.134Z,16.48
2019-04-06T15:42:35.702Z,17.10
2019-04-06T15:45:15.441Z,16.12
2019-04-06T15:47:49.327Z,16.05
2019-04-06T15:50:26.557Z,14.98
2019-04-06T15:53:18.439Z,14.75
2019-04-06T15:56:00.267Z,15.18
2019-04-06T15:58:40.438Z,15.25
2019-04-06T16:01:28.520Z,14.50
2019-04-06T16:04:05.526Z,13.88
2019-04-06T16:06:46.698Z,14.05
2019-04-06T16:09:46.392Z,13.47
2019-04-06T16:12:27.463Z,13.93
2019-04-06T16:15:15.850Z,13.30
2019-04-06T16:18:00.035Z,12.95
2019-04-06T16:20:34.594Z,12.90
2019-04-06T16:23:06.263Z,12.23
2019-04-06T16:25:43.998Z,11.55
2019-04-06T16:28:18.278Z,12.37
2019-04-06T16:31:10.277Z,11.80
2019-04-06T16:33:51.891Z,12.18
2019-04-06T16:36:29.361Z,12.28
2019-04-06T16:39:01.909Z,12.43
2019-04-06T16:41:46.702Z,12.40
2019-04-06T16:44:32.858Z,11.90
2019-04-06T16:47:04.245Z,12.93
2019-04-06T16:49:44.423Z,12.50
2019-04-06T16:52:28.124Z,13.00
2019-04-06T16:55:17.744Z,12.95
2019-04-06T16:57:49.234Z,12.00
2019-04-06T17:00:23.974Z,12.30
2019-04-06T17:02:58.012Z,12.88
2019-04-06T17:05:40.694Z,12.88
2019-04-06T17:08:12.920Z,13.25
2019-04-06T17:10:54.057Z,11.83
2019-04-06T17:13:41.824Z,11.65
2019-04-06T17:16:21.525Z,12.03
2019-04-06T17:19:09.397Z,12.07
2019-04-06T17:21:47.686Z,11.83
2019-04-06T17:24:42.089Z,11.22
2019-04-06T17:27:17.822Z,11.93
2019-04-06T17:29:52.028Z,11.17
2019-04-06T17:32:36.029Z,11.70
2019-04-06T17:35:03.919Z,11.80
2019-04-06T17:37:54.619Z,11.75
2019-04-06T17:40:38.450Z,11.55
2019-04-06T17:43:11.830Z,11.23
2019-04-06T17:46:01.303Z,12.20
2019-04-06T17:48:50.968Z,11.75
2019-04-06T17:51:41.381Z,10.93
2019-04-06T17:54:28.138Z,12.10
2019-04-06T17:57:17.863Z,12.05
2019-04-06T18:00:05.494Z,11.65
2019-04-06T18:02:48.745Z,11.00
2019-04-06T18:05:21.699Z,11.87
2019-04-06T18:07:53.167Z,11.65
2019-04-06T18:10:24.636Z,11.53
2019-04-06T18:12:58.648Z,11.93
2019-04-06T18:15:28.604Z,11.97
2019-04-06T18:17:58.764Z,11.83
2019-04-06T18:20:28.809Z,12.15
2019-04-06T18:22:59.653Z,12.13
2019-04-06T18:25:32.952Z,11.30
2019-04-06T18:28:07.103Z,11.67
2019-04-06T18:33:34.924Z,11.30
2019-04-06T18:36:05.692Z,10.82
2019-04-06T18:41:40.845Z,11.40
2019-04-06T18:44:16.706Z,11.48
2019-04-06T18:47:00.845Z,11.57
2019-04-06T18:49:43.350Z,13.50
2019-04-06T18:55:08.683Z,15.07
2019-04-06T18:57:38.191Z,16.63
2019-04-06T19:00:15.226Z,18.60
2019-04-06T19:02:47.891Z,20.45
2019-04-06T19:05:19.371Z,19.10
2019-04-06T19:07:59.727Z,18.55
2019-04-06T19:10:37.101Z,22.00
2019-04-06T19:13:24.888Z,23.27
2019-04-06T19:15:57.337Z,22.20
2019-04-06T19:18:27.142Z,22.42
2019-04-06T19:20:56.927Z,22.30
2019-04-06T19:23:26.737Z,23.12
2019-04-06T19:26:00.197Z,24.33
2019-04-06T19:28:30.050Z,25.37
2019-04-06T19:31:00.278Z,23.60
2019-04-06T19:33:31.544Z,24.60
2019-04-06T19:36:01.480Z,24.55
2019-04-06T19:38:31.408Z,25.37
2019-04-06T19:41:01.206Z,26.37
2019-04-06T19:43:31.035Z,26.20
2019-04-06T19:46:00.943Z,26.90
2019-04-06T19:48:31.241Z,26.37
2019-04-06T19:51:01.055Z,27.30
2019-04-06T19:53:31.761Z,29.37
2019-04-06T19:56:07.723Z,27.70
2019-04-06T19:58:38.000Z,27.90
2019-04-06T20:01:08.051Z,28.52
2019-04-06T20:03:39.280Z,28.73
2019-04-06T20:06:10.309Z,28.00
2019-04-06T20:08:41.092Z,27.75
2019-04-06T20:11:12.744Z,28.20
2019-04-06T20:13:42.602Z,28.60
2019-04-06T20:16:12.411Z,29.98
2019-04-06T20:18:44.208Z,28.87
2019-04-06T20:21:14.257Z,29.35
2019-04-06T20:23:44.680Z,31.20
2019-04-06T20:26:18.486Z,30.45
2019-04-06T20:28:49.982Z,30.05
2019-04-06T20:31:19.787Z,29.77
2019-04-06T20:33:51.939Z,31.35
2019-04-06T20:36:21.198Z,29.50
2019-04-06T20:38:50.927Z,31.42
2019-04-06T20:41:21.079Z,29.45
2019-04-06T20:43:50.948Z,31.15
2019-04-06T20:46:38.873Z,30.13
2019-04-06T20:49:09.184Z,30.82
2019-04-06T20:51:42.311Z,30.43
2019-04-06T20:54:12.226Z,30.35
2019-04-06T20:56:53.235Z,31.20
2019-04-06T20:59:14.386Z,31.57
2019-04-06T21:01:44.130Z,33.38
2019-04-06T21:04:13.919Z,30.80
2019-04-06T21:06:43.745Z,31.33
2019-04-06T21:09:14.295Z,31.42
2019-04-06T21:11:44.723Z,31.15
2019-04-06T21:14:14.640Z,31.60
2019-04-06T21:16:45.649Z,31.48
2019-04-06T21:19:15.874Z,31.80
2019-04-06T21:21:45.789Z,31.15
2019-04-06T21:24:15.834Z,31.55
2019-04-06T21:26:45.672Z,31.45
2019-04-06T21:29:17.053Z,32.45
2019-04-06T21:31:47.279Z,30.75
2019-04-06T21:34:17.068Z,31.93
2019-04-06T21:36:47.297Z,30.72
2019-04-06T21:39:17.673Z,31.97
2019-04-06T21:41:47.539Z,31.97
2019-04-06T21:44:20.426Z,31.93
2019-04-06T21:47:08.671Z,31.65
2019-04-06T21:49:39.959Z,32.03
2019-04-06T21:52:10.194Z,31.85
2019-04-06T21:54:40.055Z,32.05
2019-04-06T21:57:09.791Z,32.40
2019-04-06T21:59:41.732Z,31.77
2019-04-06T22:02:11.607Z,30.75
2019-04-06T22:04:41.916Z,32.48
2019-04-06T22:07:12.963Z,32.55
2019-04-06T22:09:45.821Z,31.10
2019-04-06T22:12:15.587Z,31.33
2019-04-06T22:14:45.443Z,31.68
2019-04-06T22:17:17.458Z,31.07
2019-04-06T22:19:47.394Z,31.47
2019-04-06T22:22:17.947Z,30.92
2019-04-06T22:24:48.703Z,30.30
2019-04-06T22:27:19.546Z,31.93
2019-04-06T22:29:49.874Z,30.80
2019-04-06T22:32:21.217Z,30.82
2019-04-06T22:34:54.097Z,31.75
2019-04-06T22:37:29.098Z,31.80
2019-04-06T22:39:59.283Z,31.40
2019-04-06T22:42:30.673Z,30.02
2019-04-06T22:45:02.639Z,31.27
2019-04-06T22:47:32.539Z,30.97
2019-04-06T22:50:02.716Z,32.40
2019-04-06T22:52:37.239Z,31.57
2019-04-06T22:55:07.361Z,30.88
2019-04-06T22:57:37.395Z,31.70
2019-04-06T23:00:11.238Z,31.63
2019-04-06T23:02:45.135Z,31.55
2019-04-06T23:05:32.208Z,31.35
2019-04-06T23:08:02.093Z,30.72
2019-04-06T23:10:34.624Z,31.63
2019-04-06T23:13:04.407Z,32.35
2019-04-06T23:15:34.381Z,31.37
2019-04-06T23:18:04.660Z,31.65
2019-04-06T23:20:35.189Z,31.17
2019-04-06T23:23:05.103Z,31.12
2019-04-06T23:25:36.124Z,32.17
2019-04-06T23:28:05.850Z,32.13
2019-04-06T23:30:35.720Z,32.40
2019-04-06T23:33:05.415Z,32.67
2019-04-06T23:35:35.740Z,30.57
2019-04-06T23:38:05.820Z,31.90
2019-04-06T23:40:35.624Z,33.05
2019-04-06T23:43:05.468Z,31.12
2019-04-06T23:45:35.596Z,31.77
2019-04-06T23:48:05.946Z,32.48
2019-04-06T23:50:35.913Z,31.93
2019-04-06T23:53:05.835Z,32.47
2019-04-06T23:55:36.563Z,32.08
2019-04-06T23:58:06.434Z,31.23
